Buoy 56916

sailwx.info

Track history (hours):
 
Tides and Currents Weather Stations Pressure Air Temp Water Temp Dewpoint Dewpoint Depression Visibility Wind Speed Wind Dir Waves Ship Positions

Drifting buoy 56916

Last reported at 2016-May-24 02:00 UTC. Time now 2016-May-24 06:07 UTC.
Position S 52°24' E 103°36'.

Barometer 983.5 mb
Water temperature 2.1 ° C

Date/timePositionNaut miles runAvg speedWind from/ knotsBaromVisibWave heightAir tempDewpointWater temp
2016-May-24 02:00S 52°24' E 103°36'1 0.2 983.5 2.1
2016-May-23 23:00S 52°25' E 103°36'2 1.0 983.6 2.1
2016-May-23 21:00S 52°27' E 103°34'1 1.0 983.2 2.1
2016-May-23 20:00S 52°28' E 103°34'0 0.0 983.0 2.0
2016-May-23 19:00S 52°28' E 103°34'0 0.3 982.8 2.0
2016-May-23 18:00S 52°28' E 103°34'2 0.4 982.4 2.0
2016-May-23 14:00S 52°29' E 103°31'0 0.0 981.5 2.0
2016-May-23 13:00S 52°29' E 103°31'2 0.5 981.1 2.0
2016-May-23 10:00S 52°30' E 103°32'2 1.7 979.2 1.9
2016-May-23 09:00S 52°31' E 103°30'1 0.8 978.3 1.9
2016-May-23 08:00S 52°32' E 103°31'0 0.0 977.4 1.9
2016-May-23 06:00S 52°32' E 103°31'1 0.4 976.1 1.9
2016-May-23 03:00S 52°33' E 103°31'1 0.3 975.4 1.9
2016-May-23 00:00S 52°34' E 103°31'1 0.3 973.8 1.9
2016-May-22 21:00S 52°35' E 103°31'0 0.0 972.5 1.9
2016-May-22 20:00S 52°35' E 103°31'2 0.9 972.3 1.9
2016-May-22 18:00S 52°37' E 103°29'0 0.0 972.1 2.0
2016-May-22 17:00S 52°37' E 103°29'1 0.3 971.9 1.9
2016-May-22 13:00S 52°38' E 103°30'0 0.2 972.3 1.9
2016-May-22 11:00S 52°38' E 103°29'0 0.4 972.6 1.9
2016-May-22 10:00S 52°39' E 103°30'4 0.4 972.6 1.9
2016-May-22 01:00S 52°43' E 103°29'0 0.2 974.5 1.9
2016-May-22 00:00S 52°43' E 103°30'1 1.3 974.5 1.9
2016-May-21 23:00S 52°44' E 103°29'2 0.4 974.3 2.0
2016-May-21 19:00S 52°45' E 103°27'0 0.1 974.0 1.8
2016-May-21 17:00S 52°45' E 103°27'1 0.2 974.3 1.8
2016-May-21 14:00S 52°46' E 103°28'3 0.8 975.8 1.8
2016-May-21 10:00S 52°49' E 103°26'0 0.5 977.8 1.9
2016-May-21 09:00S 52°48' E 103°27'1 0.4 978.4 1.9
2016-May-21 07:00S 52°49' E 103°26'2 0.4 978.7 1.9
2016-May-21 02:00S 52°51' E 103°26'1 1.0 980.6 2.0
2016-May-21 01:00S 52°52' E 103°26'1 0.3 980.8 2.1
2016-May-20 23:00S 52°53' E 103°25'3 1.1 981.1 2.2
2016-May-20 20:00S 52°55' E 103°21'2 0.8 981.1 2.3
2016-May-20 17:00S 52°57' E 103°18'1 0.7 981.0 2.2
2016-May-20 15:00S 52°58' E 103°17'2 0.5 981.0 2.0
2016-May-20 11:00S 52°58' E 103°14'3 0.7 980.6 1.9
2016-May-20 07:00S 53°01' E 103°13'4 0.7 979.7 1.9
2016-May-20 02:00S 53°04' E 103°09'1 0.6 980.8 1.9
2016-May-20 01:00S 53°03' E 103°09'4 0.8 980.9 1.9
2016-May-19 20:00S 53°07' E 103°06'0 0.0 980.2 1.9
2016-May-19 19:00S 53°07' E 103°06'0 0.2 979.6 1.9
2016-May-19 17:00S 53°07' E 103°06'3 0.5 978.2 1.9
2016-May-19 10:00S 53°09' E 103°01'1 0.5 977.3 1.9
2016-May-19 08:00S 53°10' E 102°60'1 0.7 977.4 1.9
2016-May-19 07:00S 53°10' E 102°59'2 0.4 977.5 1.9
2016-May-19 02:00S 53°11' E 102°57'1 0.9 979.2 1.9
2016-May-19 01:00S 53°12' E 102°55'2 0.7 979.4 1.9
2016-May-18 22:00S 53°13' E 102°53'2 1.0 980.5 1.9
2016-May-18 20:00S 53°13' E 102°50'1 0.3 981.2 1.9
2016-May-18 17:00S 53°13' E 102°48'1 0.5 982.3 1.9
2016-May-18 15:00S 53°14' E 102°46'1 0.6 982.4 1.9
2016-May-18 14:00S 53°14' E 102°45'2 0.6 982.1 2.0
2016-May-18 11:00S 53°15' E 102°43'1 0.3 981.7 2.0
2016-May-18 09:00S 53°15' E 102°43'4 0.6 981.1 2.0
2016-May-18 03:00S 53°15' E 102°36'1 0.5 979.4 2.1
2016-May-18 01:00S 53°16' E 102°35'0 0.1 979.6 2.0
2016-May-17 23:00S 53°15' E 102°35'1 0.4 980.1 2.0
2016-May-17 21:00S 53°16' E 102°34'0 0.0 980.8 2.0
2016-May-17 20:00S 53°16' E 102°34'1 0.6 981.1 2.0
2016-May-17 19:00S 53°16' E 102°33'2 0.9 981.3 2.0
2016-May-17 17:00S 53°17' E 102°30'1 0.5 981.4 2.0
2016-May-17 14:00S 53°16' E 102°28'1 0.4 981.6 2.0
2016-May-17 11:00S 53°16' E 102°26'0 0.3 980.6 2.0
2016-May-17 10:00S 53°15' E 102°26'2 0.2 980.1 2.0
2016-May-17 00:00S 53°16' E 102°23'1 0.4 979.0 1.9
2016-May-16 22:00S 53°15' E 102°23'1 1.1 980.0 1.9
2016-May-16 21:00S 53°15' E 102°21'0 0.0 980.0 1.9
2016-May-16 20:00S 53°15' E 102°21'0 0.0 980.2 1.9
2016-May-16 19:00S 53°15' E 102°21'0 0.1 980.2 1.9
2016-May-16 16:00S 53°15' E 102°21'0 0.2 978.1 1.9
2016-May-16 14:00S 53°16' E 102°21'1 1.1 975.4 1.9
2016-May-16 13:00S 53°16' E 102°19'1 0.3 973.5 2.0
2016-May-16 11:00S 53°17' E 102°20'0 0.4 968.6 2.0
2016-May-16 10:00S 53°17' E 102°19'1 0.6 966.0 2.0
2016-May-16 08:00S 53°18' E 102°17'3 0.3 962.6 2.0
2016-May-15 20:00S 53°16' E 102°13'2 0.5 961.8 2.0
2016-May-15 16:00S 53°14' E 102°11'2 0.4 961.6 2.1
2016-May-15 11:00S 53°13' E 102°09'1 1.3 971.9 2.3
2016-May-15 10:00S 53°12' E 102°08'1 0.5 974.3 2.4
2016-May-15 08:00S 53°11' E 102°07'5 0.8 978.5 2.5
2016-May-15 02:00S 53°07' E 102°02'1 0.4 986.8 2.5
2016-May-14 23:00S 53°07' E 102°00'1 0.6 988.1 2.5
2016-May-14 21:00S 53°07' E 101°58'2 2.3 987.2 2.6
2016-May-14 20:00S 53°08' E 101°55'2 0.8 987.0 2.6
2016-May-14 18:00S 53°08' E 101°52'1 0.6 986.4 2.7
2016-May-14 16:00S 53°07' E 101°50'1 0.7 986.8 2.6
2016-May-14 14:00S 53°08' E 101°48'0 0.3 986.9 2.7
2016-May-14 13:00S 53°07' E 101°47'1 0.7 987.4 2.7
2016-May-14 11:00S 53°08' E 101°45'1 0.9 987.3 2.7
2016-May-14 10:00S 53°09' E 101°45'2 1.0 987.6 2.7
2016-May-14 08:00S 53°11' E 101°42'2 1.0 986.9 2.7
2016-May-14 06:00S 53°12' E 101°41'6 1.5 987.2 2.8
2016-May-14 02:00S 53°17' E 101°35'   987.0 2.7
Track history (hours):
 
Tides and Currents Weather Stations Pressure Air Temp Water Temp Dewpoint Dewpoint Depression Visibility Wind Speed Wind Dir Waves Ship Positions

Drifting buoy 56916

Last reported at 2016-May-24 02:00 UTC. Time now 2016-May-24 06:07 UTC.
Position S 52°24' E 103°36'.

Barometer 983.5 mb
Water temperature 2.1 ° C

Date/timePositionNaut miles runAvg speedWind from/ knotsBaromVisibWave heightAir tempDewpointWater temp
2016-May-24 02:00S 52°24' E 103°36'1 0.2 983.5 2.1
2016-May-23 23:00S 52°25' E 103°36'2 1.0 983.6 2.1
2016-May-23 21:00S 52°27' E 103°34'1 1.0 983.2 2.1
2016-May-23 20:00S 52°28' E 103°34'0 0.0 983.0 2.0
2016-May-23 19:00S 52°28' E 103°34'0 0.3 982.8 2.0
2016-May-23 18:00S 52°28' E 103°34'2 0.4 982.4 2.0
2016-May-23 14:00S 52°29' E 103°31'0 0.0 981.5 2.0
2016-May-23 13:00S 52°29' E 103°31'2 0.5 981.1 2.0
2016-May-23 10:00S 52°30' E 103°32'2 1.7 979.2 1.9
2016-May-23 09:00S 52°31' E 103°30'1 0.8 978.3 1.9
2016-May-23 08:00S 52°32' E 103°31'0 0.0 977.4 1.9
2016-May-23 06:00S 52°32' E 103°31'1 0.4 976.1 1.9
2016-May-23 03:00S 52°33' E 103°31'1 0.3 975.4 1.9
2016-May-23 00:00S 52°34' E 103°31'1 0.3 973.8 1.9
2016-May-22 21:00S 52°35' E 103°31'0 0.0 972.5 1.9
2016-May-22 20:00S 52°35' E 103°31'2 0.9 972.3 1.9
2016-May-22 18:00S 52°37' E 103°29'0 0.0 972.1 2.0
2016-May-22 17:00S 52°37' E 103°29'1 0.3 971.9 1.9
2016-May-22 13:00S 52°38' E 103°30'0 0.2 972.3 1.9
2016-May-22 11:00S 52°38' E 103°29'0 0.4 972.6 1.9
2016-May-22 10:00S 52°39' E 103°30'4 0.4 972.6 1.9
2016-May-22 01:00S 52°43' E 103°29'0 0.2 974.5 1.9
2016-May-22 00:00S 52°43' E 103°30'1 1.3 974.5 1.9
2016-May-21 23:00S 52°44' E 103°29'2 0.4 974.3 2.0
2016-May-21 19:00S 52°45' E 103°27'0 0.1 974.0 1.8
2016-May-21 17:00S 52°45' E 103°27'1 0.2 974.3 1.8
2016-May-21 14:00S 52°46' E 103°28'3 0.8 975.8 1.8
2016-May-21 10:00S 52°49' E 103°26'0 0.5 977.8 1.9
2016-May-21 09:00S 52°48' E 103°27'1 0.4 978.4 1.9
2016-May-21 07:00S 52°49' E 103°26'2 0.4 978.7 1.9
2016-May-21 02:00S 52°51' E 103°26'1 1.0 980.6 2.0
2016-May-21 01:00S 52°52' E 103°26'1 0.3 980.8 2.1
2016-May-20 23:00S 52°53' E 103°25'3 1.1 981.1 2.2
2016-May-20 20:00S 52°55' E 103°21'2 0.8 981.1 2.3
2016-May-20 17:00S 52°57' E 103°18'1 0.7 981.0 2.2
2016-May-20 15:00S 52°58' E 103°17'2 0.5 981.0 2.0
2016-May-20 11:00S 52°58' E 103°14'3 0.7 980.6 1.9
2016-May-20 07:00S 53°01' E 103°13'4 0.7 979.7 1.9
2016-May-20 02:00S 53°04' E 103°09'1 0.6 980.8 1.9
2016-May-20 01:00S 53°03' E 103°09'4 0.8 980.9 1.9
2016-May-19 20:00S 53°07' E 103°06'0 0.0 980.2 1.9
2016-May-19 19:00S 53°07' E 103°06'0 0.2 979.6 1.9
2016-May-19 17:00S 53°07' E 103°06'3 0.5 978.2 1.9
2016-May-19 10:00S 53°09' E 103°01'1 0.5 977.3 1.9
2016-May-19 08:00S 53°10' E 102°60'1 0.7 977.4 1.9
2016-May-19 07:00S 53°10' E 102°59'2 0.4 977.5 1.9
2016-May-19 02:00S 53°11' E 102°57'1 0.9 979.2 1.9
2016-May-19 01:00S 53°12' E 102°55'2 0.7 979.4 1.9
2016-May-18 22:00S 53°13' E 102°53'2 1.0 980.5 1.9
2016-May-18 20:00S 53°13' E 102°50'1 0.3 981.2 1.9
2016-May-18 17:00S 53°13' E 102°48'1 0.5 982.3 1.9
2016-May-18 15:00S 53°14' E 102°46'1 0.6 982.4 1.9
2016-May-18 14:00S 53°14' E 102°45'2 0.6 982.1 2.0
2016-May-18 11:00S 53°15' E 102°43'1 0.3 981.7 2.0
2016-May-18 09:00S 53°15' E 102°43'4 0.6 981.1 2.0
2016-May-18 03:00S 53°15' E 102°36'1 0.5 979.4 2.1
2016-May-18 01:00S 53°16' E 102°35'0 0.1 979.6 2.0
2016-May-17 23:00S 53°15' E 102°35'1 0.4 980.1 2.0
2016-May-17 21:00S 53°16' E 102°34'0 0.0 980.8 2.0
2016-May-17 20:00S 53°16' E 102°34'1 0.6 981.1 2.0
2016-May-17 19:00S 53°16' E 102°33'2 0.9 981.3 2.0
2016-May-17 17:00S 53°17' E 102°30'1 0.5 981.4 2.0
2016-May-17 14:00S 53°16' E 102°28'1 0.4 981.6 2.0
2016-May-17 11:00S 53°16' E 102°26'0 0.3 980.6 2.0
2016-May-17 10:00S 53°15' E 102°26'2 0.2 980.1 2.0
2016-May-17 00:00S 53°16' E 102°23'1 0.4 979.0 1.9
2016-May-16 22:00S 53°15' E 102°23'1 1.1 980.0 1.9
2016-May-16 21:00S 53°15' E 102°21'0 0.0 980.0 1.9
2016-May-16 20:00S 53°15' E 102°21'0 0.0 980.2 1.9
2016-May-16 19:00S 53°15' E 102°21'0 0.1 980.2 1.9
2016-May-16 16:00S 53°15' E 102°21'0 0.2 978.1 1.9
2016-May-16 14:00S 53°16' E 102°21'1 1.1 975.4 1.9
2016-May-16 13:00S 53°16' E 102°19'1 0.3 973.5 2.0
2016-May-16 11:00S 53°17' E 102°20'0 0.4 968.6 2.0
2016-May-16 10:00S 53°17' E 102°19'1 0.6 966.0 2.0
2016-May-16 08:00S 53°18' E 102°17'3 0.3 962.6 2.0
2016-May-15 20:00S 53°16' E 102°13'2 0.5 961.8 2.0
2016-May-15 16:00S 53°14' E 102°11'2 0.4 961.6 2.1
2016-May-15 11:00S 53°13' E 102°09'1 1.3 971.9 2.3
2016-May-15 10:00S 53°12' E 102°08'1 0.5 974.3 2.4
2016-May-15 08:00S 53°11' E 102°07'5 0.8 978.5 2.5
2016-May-15 02:00S 53°07' E 102°02'1 0.4 986.8 2.5
2016-May-14 23:00S 53°07' E 102°00'1 0.6 988.1 2.5
2016-May-14 21:00S 53°07' E 101°58'2 2.3 987.2 2.6
2016-May-14 20:00S 53°08' E 101°55'2 0.8 987.0 2.6
2016-May-14 18:00S 53°08' E 101°52'1 0.6 986.4 2.7
2016-May-14 16:00S 53°07' E 101°50'1 0.7 986.8 2.6
2016-May-14 14:00S 53°08' E 101°48'0 0.3 986.9 2.7
2016-May-14 13:00S 53°07' E 101°47'1 0.7 987.4 2.7
2016-May-14 11:00S 53°08' E 101°45'1 0.9 987.3 2.7
2016-May-14 10:00S 53°09' E 101°45'2 1.0 987.6 2.7
2016-May-14 08:00S 53°11' E 101°42'2 1.0 986.9 2.7
2016-May-14 06:00S 53°12' E 101°41'6 1.5 987.2 2.8
2016-May-14 02:00S 53°17' E 101°35'   987.0 2.7

Dump ship's entire track history